Time;durP1;ratioP1;P1;durP2;ratioP2;P2;SDS_P1;SDS_P2;PMS_P1;PMS_P2;Temp;Humidity;BMP_temperature;BMP_pressure;BME280_temperature;BME280_humidity;BME280_pressure;Samples;Min_cycle;Max_cycle;Signal;HPM_P1;HPM_P2
2021/09/21 00:02:09;;;;;;;8.87;7.97;;;11.60;99.90;;;;;;5095513;28;20657;-65
2021/09/21 00:04:37;;;;;;;10.27;8.13;;;11.60;99.90;;;;;;5095488;28;20302;-66
2021/09/21 00:07:05;;;;;;;9.63;7.60;;;11.60;99.90;;;;;;5095316;28;20227;-66
2021/09/21 00:09:33;;;;;;;11.00;7.97;;;11.60;99.90;;;;;;5095754;28;20841;-66
2021/09/21 00:12:01;;;;;;;10.27;8.17;;;11.60;99.90;;;;;;5095664;28;20287;-65
2021/09/21 00:14:30;;;;;;;9.10;8.10;;;11.50;99.90;;;;;;5095616;28;20196;-66
2021/09/21 00:17:02;;;;;;;11.33;8.13;;;11.50;99.90;;;;;;5095123;28;20199;-65
2021/09/21 00:19:32;;;;;;;9.97;8.47;;;11.50;99.90;;;;;;5095398;28;20199;-66
2021/09/21 00:22:00;;;;;;;9.43;8.07;;;11.50;99.90;;;;;;5095229;28;20200;-66
2021/09/21 00:24:28;;;;;;;9.20;8.27;;;11.50;99.90;;;;;;5095460;28;20196;-66
2021/09/21 00:26:56;;;;;;;9.07;8.23;;;11.40;99.90;;;;;;5094963;28;20753;-66
2021/09/21 00:29:24;;;;;;;10.27;8.13;;;11.50;99.90;;;;;;5094990;28;20286;-66
2021/09/21 00:32:00;;;;;;;9.17;7.93;;;11.50;99.90;;;;;;5094740;28;20655;-66
2021/09/21 00:34:37;;;;;;;10.67;7.90;;;11.40;99.90;;;;;;5094773;28;20714;-66
2021/09/21 00:37:05;;;;;;;8.67;7.47;;;11.40;99.90;;;;;;5095178;28;20188;-66
2021/09/21 00:39:33;;;;;;;9.10;7.93;;;11.40;99.90;;;;;;5095145;28;20283;-66
2021/09/21 00:42:01;;;;;;;8.40;7.60;;;11.40;99.90;;;;;;5094972;28;20199;-64
2021/09/21 00:44:29;;;;;;;9.23;8.13;;;11.40;99.90;;;;;;5093879;28;20200;-65
2021/09/21 00:46:58;;;;;;;9.73;8.03;;;11.30;99.90;;;;;;5094601;28;20234;-65
2021/09/21 00:49:26;;;;;;;9.43;8.43;;;11.30;99.90;;;;;;5094789;28;20291;-65
2021/09/21 00:51:54;;;;;;;10.90;9.53;;;11.30;99.90;;;;;;5094483;28;20296;-66
2021/09/21 00:54:22;;;;;;;14.13;10.40;;;11.30;99.90;;;;;;5094495;28;20509;-66
2021/09/21 00:56:51;;;;;;;11.10;9.30;;;11.30;99.90;;;;;;5094633;28;20291;-66
2021/09/21 00:59:19;;;;;;;9.27;7.67;;;11.30;99.90;;;;;;5094778;28;20200;-66
2021/09/21 01:01:47;;;;;;;9.97;8.10;;;11.30;99.90;;;;;;5094432;28;20247;-64
2021/09/21 01:04:16;;;;;;;8.53;7.60;;;11.30;99.90;;;;;;5094475;28;20211;-66
2021/09/21 01:06:44;;;;;;;9.20;7.57;;;11.30;99.90;;;;;;5094387;28;20222;-66
2021/09/21 01:09:17;;;;;;;10.60;8.30;;;11.30;99.90;;;;;;5094148;28;20710;-65
2021/09/21 01:11:47;;;;;;;9.67;7.53;;;11.30;99.90;;;;;;5094654;28;20198;-66
2021/09/21 01:14:15;;;;;;;10.10;7.00;;;11.30;99.90;;;;;;5094088;28;20204;-66
2021/09/21 01:16:43;;;;;;;10.43;8.03;;;11.30;99.90;;;;;;5093970;28;20291;-66
2021/09/21 01:19:12;;;;;;;10.80;8.07;;;11.40;99.90;;;;;;5093987;28;20290;-65
2021/09/21 01:21:41;;;;;;;9.40;8.33;;;11.40;99.90;;;;;;5094221;28;20207;-65
2021/09/21 01:24:10;;;;;;;9.00;7.87;;;11.50;99.90;;;;;;5093887;28;20203;-65
2021/09/21 01:26:38;;;;;;;8.60;7.70;;;11.40;99.90;;;;;;5093463;28;20220;-65
2021/09/21 01:29:06;;;;;;;8.90;8.00;;;11.40;99.90;;;;;;5094348;28;20296;-65
2021/09/21 01:31:34;;;;;;;10.93;8.33;;;11.40;99.90;;;;;;5093817;28;20208;-66
2021/09/21 01:34:03;;;;;;;9.87;8.27;;;11.40;99.90;;;;;;5093866;28;20220;-66
2021/09/21 01:36:31;;;;;;;9.27;8.27;;;11.30;99.90;;;;;;5093717;28;20680;-65
2021/09/21 01:39:00;;;;;;;9.57;7.50;;;11.30;99.90;;;;;;5093948;28;20373;-65
2021/09/21 01:41:28;;;;;;;10.53;8.57;;;11.20;99.90;;;;;;5093819;28;20200;-66
2021/09/21 01:43:56;;;;;;;9.67;8.50;;;11.20;99.90;;;;;;5093499;28;20678;-66
2021/09/21 01:46:24;;;;;;;9.27;7.90;;;11.10;99.90;;;;;;5093564;28;20216;-65
2021/09/21 01:48:53;;;;;;;9.67;8.57;;;11.20;99.90;;;;;;5093646;28;20286;-65
2021/09/21 01:51:28;;;;;;;9.07;8.17;;;11.20;99.90;;;;;;5093705;28;20640;-67
2021/09/21 01:54:10;;;;;;;8.40;7.50;;;11.20;99.90;;;;;;5093775;28;20368;-66
2021/09/21 01:59:24;;;;;;;9.00;8.03;;;11.20;99.90;;;;;;5093729;28;20272;-66
2021/09/21 02:01:52;;;;;;;11.80;8.03;;;11.20;99.90;;;;;;5093356;28;20210;-65
2021/09/21 02:04:21;;;;;;;8.57;7.67;;;11.20;99.90;;;;;;5093326;28;20203;-66
2021/09/21 02:06:51;;;;;;;8.87;7.60;;;11.20;99.90;;;;;;5092856;28;20602;-66
2021/09/21 02:09:19;;;;;;;10.97;8.10;;;11.20;99.90;;;;;;5093048;28;20293;-66
2021/09/21 02:11:49;;;;;;;9.63;8.10;;;11.20;99.90;;;;;;5093012;28;20694;-66
2021/09/21 02:14:18;;;;;;;8.83;7.93;;;11.20;99.90;;;;;;5093260;28;20286;-66
2021/09/21 02:16:46;;;;;;;11.97;8.43;;;11.20;99.90;;;;;;5092750;28;20963;-67
2021/09/21 02:19:14;;;;;;;9.20;8.20;;;11.20;99.90;;;;;;5093026;28;20200;-66
2021/09/21 02:21:42;;;;;;;9.60;8.17;;;11.10;99.90;;;;;;5093112;28;20295;-66
2021/09/21 02:24:10;;;;;;;9.33;8.00;;;11.10;99.90;;;;;;5093005;28;20291;-66
2021/09/21 02:26:38;;;;;;;10.03;8.43;;;11.00;99.90;;;;;;5093067;28;20311;-65
2021/09/21 02:29:10;;;;;;;10.77;8.83;;;11.00;99.90;;;;;;5093126;28;20235;-66
2021/09/21 02:31:38;;;;;;;10.53;8.33;;;11.00;99.90;;;;;;5092633;28;20262;-65
2021/09/21 02:34:06;;;;;;;10.07;9.00;;;11.00;99.90;;;;;;5093095;28;20287;-65
2021/09/21 02:36:34;;;;;;;10.63;9.53;;;11.00;99.90;;;;;;5093231;28;20327;-65
2021/09/21 02:39:02;;;;;;;14.87;12.30;;;11.00;99.90;;;;;;5092919;28;20200;-67
2021/09/21 02:41:30;;;;;;;16.33;13.50;;;11.00;99.90;;;;;;5092698;28;20213;-65
2021/09/21 02:43:57;;;;;;;11.63;10.53;;;11.00;99.90;;;;;;5092704;28;20202;-66
2021/09/21 02:46:27;;;;;;;11.07;9.90;;;11.00;99.90;;;;;;5092525;28;20290;-65
2021/09/21 02:48:54;;;;;;;11.10;8.97;;;11.00;99.90;;;;;;5092599;28;20294;-65
2021/09/21 02:51:22;;;;;;;9.07;8.10;;;11.00;99.90;;;;;;5092682;28;20286;-66
2021/09/21 02:53:50;;;;;;;9.47;8.37;;;11.00;99.90;;;;;;5092758;28;20298;-67
2021/09/21 02:56:18;;;;;;;9.17;8.20;;;11.00;99.90;;;;;;5092377;28;20200;-66
2021/09/21 02:58:46;;;;;;;9.23;8.23;;;11.10;99.90;;;;;;5092692;28;20286;-66
2021/09/21 03:01:14;;;;;;;9.40;8.40;;;11.10;99.90;;;;;;5092388;28;20200;-65
2021/09/21 03:03:47;;;;;;;8.87;7.97;;;11.10;99.90;;;;;;5092233;28;20223;-65
2021/09/21 03:06:22;;;;;;;8.03;7.33;;;11.10;99.90;;;;;;5092732;28;20184;-65
2021/09/21 03:08:52;;;;;;;8.30;7.37;;;11.10;99.90;;;;;;5094264;28;20604;-65
2021/09/21 03:11:22;;;;;;;9.23;7.67;;;11.10;99.90;;;;;;5096692;28;20287;-65
2021/09/21 03:19:39;;;;;;;8.77;7.87;;;11.10;99.90;;;;;;5053452;28;20820;-65
2021/09/21 03:22:06;;;;;;;7.80;7.00;;;11.20;99.90;;;;;;5053448;28;20284;-66
2021/09/21 03:24:34;;;;;;;7.97;7.17;;;11.10;99.90;;;;;;5072834;28;20200;-65
2021/09/21 03:27:02;;;;;;;8.57;7.67;;;11.20;99.90;;;;;;5096189;28;20612;-67
2021/09/21 03:29:30;;;;;;;9.40;7.37;;;11.20;99.90;;;;;;5096310;28;20200;-66
2021/09/21 03:31:58;;;;;;;8.67;7.60;;;11.20;99.90;;;;;;5095835;28;20215;-65
2021/09/21 03:34:26;;;;;;;9.10;7.63;;;11.20;99.90;;;;;;5095813;28;20552;-66
2021/09/21 03:36:55;;;;;;;9.03;8.13;;;11.20;99.90;;;;;;5095804;28;20211;-65
2021/09/21 03:39:23;;;;;;;8.60;7.73;;;11.20;99.90;;;;;;5095987;28;20602;-66
2021/09/21 03:41:51;;;;;;;8.93;7.80;;;11.10;99.90;;;;;;5095948;28;20283;-67
2021/09/21 03:44:18;;;;;;;10.33;8.83;;;11.10;99.90;;;;;;5096098;28;20199;-65
2021/09/21 03:46:46;;;;;;;9.63;7.40;;;11.10;99.90;;;;;;5095773;28;20196;-66
2021/09/21 03:49:14;;;;;;;8.43;7.57;;;11.10;99.90;;;;;;5095751;28;20220;-66
2021/09/21 03:51:42;;;;;;;8.43;7.60;;;11.10;99.90;;;;;;5095611;28;20200;-66
2021/09/21 03:54:11;;;;;;;9.87;7.40;;;11.10;99.90;;;;;;5095981;28;20222;-66
2021/09/21 03:56:39;;;;;;;10.53;7.10;;;11.10;99.90;;;;;;5095762;28;20204;-67
2021/09/21 03:59:08;;;;;;;8.83;7.43;;;11.10;99.90;;;;;;5095539;28;20640;-66
2021/09/21 04:01:36;;;;;;;7.90;7.10;;;11.10;99.90;;;;;;5095564;28;20199;-66
2021/09/21 04:04:04;;;;;;;8.60;7.03;;;11.10;99.90;;;;;;5095290;28;20200;-66
2021/09/21 04:06:33;;;;;;;8.90;7.67;;;11.10;99.90;;;;;;5095629;28;20236;-66
2021/09/21 04:09:02;;;;;;;8.57;7.67;;;11.10;99.90;;;;;;5095104;28;20250;-67
2021/09/21 04:11:31;;;;;;;9.00;7.13;;;11.10;99.90;;;;;;5095526;28;20230;-66
2021/09/21 04:14:01;;;;;;;9.23;7.70;;;11.10;99.90;;;;;;5095240;28;20234;-65
2021/09/21 04:16:30;;;;;;;9.43;8.30;;;11.10;99.90;;;;;;5095295;28;20286;-66
2021/09/21 04:18:58;;;;;;;10.20;8.93;;;11.10;99.90;;;;;;5094764;28;20644;-65
2021/09/21 04:21:27;;;;;;;10.00;7.93;;;11.10;99.90;;;;;;5095423;28;20215;-65
2021/09/21 04:23:55;;;;;;;8.90;8.00;;;11.10;99.90;;;;;;5095248;28;20206;-66
2021/09/21 04:26:23;;;;;;;9.70;8.80;;;11.10;99.90;;;;;;5095315;28;20231;-66
2021/09/21 04:28:52;;;;;;;10.23;6.93;;;11.10;99.90;;;;;;5095156;28;20319;-65
2021/09/21 04:31:23;;;;;;;12.30;7.83;;;11.10;99.90;;;;;;5094826;28;20310;-67
2021/09/21 04:33:53;;;;;;;8.80;7.60;;;11.10;99.90;;;;;;5094669;28;20700;-66
2021/09/21 04:36:22;;;;;;;9.57;7.83;;;11.10;99.90;;;;;;5094520;28;20291;-65
2021/09/21 04:38:49;;;;;;;7.53;6.83;;;11.10;99.90;;;;;;5094696;28;20200;-65
2021/09/21 04:41:17;;;;;;;9.27;6.20;;;11.10;99.90;;;;;;5094468;28;20231;-65
2021/09/21 04:43:45;;;;;;;8.10;6.93;;;11.00;99.90;;;;;;5094850;28;20303;-67
2021/09/21 04:46:14;;;;;;;8.50;6.70;;;11.00;99.90;;;;;;5094645;28;20228;-66
2021/09/21 04:48:43;;;;;;;8.80;7.00;;;11.00;99.90;;;;;;5094443;28;20242;-67
2021/09/21 04:51:10;;;;;;;7.17;6.47;;;11.00;99.90;;;;;;5094523;28;20679;-65
2021/09/21 04:53:38;;;;;;;8.97;6.80;;;11.10;99.90;;;;;;5094760;28;20199;-66
2021/09/21 04:56:06;;;;;;;7.87;6.70;;;11.10;99.90;;;;;;5094620;28;20250;-66
2021/09/21 04:58:34;;;;;;;7.13;6.10;;;11.10;99.90;;;;;;5094594;28;20217;-67
2021/09/21 05:01:02;;;;;;;7.80;6.63;;;11.10;99.90;;;;;;5093877;28;20295;-66
2021/09/21 05:03:31;;;;;;;11.13;7.50;;;11.10;99.90;;;;;;5094349;28;20281;-66
2021/09/21 05:05:59;;;;;;;8.53;7.73;;;11.00;99.90;;;;;;5093995;28;20295;-66
2021/09/21 05:08:27;;;;;;;8.63;7.73;;;11.10;99.90;;;;;;5093791;28;20231;-67
2021/09/21 05:10:54;;;;;;;10.23;9.20;;;11.00;99.90;;;;;;5094344;28;20299;-65
2021/09/21 05:13:22;;;;;;;10.83;9.63;;;11.00;99.90;;;;;;5094314;28;20283;-66
2021/09/21 05:15:50;;;;;;;9.67;8.17;;;11.10;99.90;;;;;;5093580;28;20682;-66
2021/09/21 05:18:22;;;;;;;8.53;7.30;;;11.10;99.90;;;;;;5093840;28;20191;-66
2021/09/21 05:20:51;;;;;;;7.90;6.73;;;11.00;99.90;;;;;;5094110;28;20204;-66
2021/09/21 05:23:18;;;;;;;9.93;7.20;;;11.10;99.90;;;;;;5093764;28;20203;-66
2021/09/21 05:25:46;;;;;;;8.60;7.53;;;11.10;99.90;;;;;;5093975;28;20286;-66
2021/09/21 05:28:14;;;;;;;10.07;6.80;;;11.00;99.90;;;;;;5093936;28;20220;-66
2021/09/21 05:30:42;;;;;;;7.30;6.50;;;11.10;99.90;;;;;;5093071;28;20196;-66
2021/09/21 05:33:09;;;;;;;9.27;7.00;;;11.10;99.90;;;;;;5093193;28;20208;-66
2021/09/21 05:35:37;;;;;;;7.87;6.53;;;11.10;99.90;;;;;;5093580;28;20310;-67
2021/09/21 05:38:06;;;;;;;9.53;6.60;;;11.20;99.90;;;;;;5093656;28;20207;-66
2021/09/21 05:40:34;;;;;;;8.37;6.80;;;11.30;99.90;;;;;;5093385;28;20786;-66
2021/09/21 05:43:02;;;;;;;8.60;6.23;;;11.30;99.90;;;;;;5093322;28;20199;-66
2021/09/21 05:45:30;;;;;;;8.07;6.27;;;11.30;99.90;;;;;;5093662;28;20218;-66
2021/09/21 05:47:57;;;;;;;8.93;6.60;;;11.40;99.90;;;;;;5093377;28;20203;-65
2021/09/21 05:50:25;;;;;;;9.03;6.67;;;11.40;99.90;;;;;;5093323;28;20216;-66
2021/09/21 05:52:53;;;;;;;8.77;6.33;;;11.50;99.90;;;;;;5093545;28;20200;-65
2021/09/21 05:55:22;;;;;;;9.23;7.03;;;11.50;99.90;;;;;;5093068;28;20214;-65
2021/09/21 05:57:50;;;;;;;8.00;6.50;;;11.60;99.90;;;;;;5093479;28;20204;-66
2021/09/21 06:00:18;;;;;;;8.90;6.70;;;11.60;99.90;;;;;;5093535;28;20239;-67
2021/09/21 06:02:46;;;;;;;8.80;6.93;;;11.70;99.90;;;;;;5092911;28;20210;-66
2021/09/21 06:05:15;;;;;;;8.77;6.90;;;11.80;99.90;;;;;;5093358;28;20196;-67
2021/09/21 06:07:48;;;;;;;9.17;6.80;;;11.80;99.90;;;;;;5093048;28;20266;-66
2021/09/21 06:10:16;;;;;;;8.70;6.70;;;11.80;99.90;;;;;;5092900;28;20307;-65
2021/09/21 06:12:46;;;;;;;7.73;6.40;;;11.90;99.90;;;;;;5092991;28;20663;-68
2021/09/21 06:15:14;;;;;;;7.97;6.73;;;12.00;99.90;;;;;;5093278;28;20196;-67
2021/09/21 06:17:43;;;;;;;7.83;6.80;;;12.00;99.90;;;;;;5092801;28;20332;-66
2021/09/21 06:20:12;;;;;;;7.90;6.35;;;12.10;99.90;;;;;;5093177;28;20200;-66
2021/09/21 06:22:42;;;;;;;7.95;6.15;;;12.20;99.90;;;;;;5093014;28;20286;-66
2021/09/21 06:25:12;;;;;;;8.27;6.90;;;12.20;99.90;;;;;;5093109;28;20200;-66
2021/09/21 06:27:41;;;;;;;9.07;6.40;;;12.20;99.90;;;;;;5093102;28;20231;-66
2021/09/21 06:30:13;;;;;;;8.27;7.33;;;12.30;99.90;;;;;;5092928;28;20223;-66
2021/09/21 06:32:41;;;;;;;8.33;6.20;;;12.30;99.90;;;;;;5092687;28;20211;-67
2021/09/21 06:35:10;;;;;;;7.93;6.30;;;12.30;99.90;;;;;;5092720;28;20299;-66
2021/09/21 06:37:38;;;;;;;7.77;6.80;;;12.30;99.90;;;;;;5092945;28;20195;-66
2021/09/21 06:40:07;;;;;;;8.37;6.93;;;12.40;99.90;;;;;;5092988;28;20282;-67
2021/09/21 06:42:36;;;;;;;8.50;7.57;;;12.40;99.90;;;;;;5092895;28;20284;-66
2021/09/21 06:45:06;;;;;;;9.03;6.93;;;12.50;99.90;;;;;;5092910;28;20204;-67
2021/09/21 06:47:35;;;;;;;8.80;6.40;;;12.50;99.90;;;;;;5092739;28;20200;-67
2021/09/21 06:50:04;;;;;;;9.37;6.90;;;12.60;99.90;;;;;;5092748;28;20216;-68
2021/09/21 06:52:32;;;;;;;10.43;7.80;;;12.70;99.90;;;;;;5092643;28;20231;-67
2021/09/21 06:55:01;;;;;;;9.10;7.43;;;12.70;99.90;;;;;;5092593;28;20215;-68
2021/09/21 06:57:29;;;;;;;8.90;6.90;;;12.70;99.90;;;;;;5092762;28;20227;-68
2021/09/21 06:59:57;;;;;;;8.95;6.65;;;12.80;99.90;;;;;;5092536;28;20644;-68
2021/09/21 07:02:25;;;;;;;8.37;7.37;;;12.90;99.90;;;;;;5092522;28;20230;-67
2021/09/21 07:04:55;;;;;;;8.30;6.87;;;12.90;99.90;;;;;;5092493;28;20228;-68
2021/09/21 07:07:23;;;;;;;8.95;6.25;;;13.00;99.90;;;;;;5092425;28;20232;-69
2021/09/21 07:09:51;;;;;;;10.68;7.18;;;13.00;99.90;;;;;;5092247;28;20234;-69
2021/09/21 07:12:18;;;;;;;10.65;6.85;;;13.10;99.90;;;;;;5093065;28;20291;-70
2021/09/21 07:14:46;;;;;;;8.90;6.63;;;13.10;99.90;;;;;;5093407;28;20235;-68
2021/09/21 07:17:14;;;;;;;7.47;5.68;;;13.20;99.90;;;;;;5093399;28;20196;-68
2021/09/21 07:19:42;;;;;;;8.47;6.37;;;13.30;99.90;;;;;;5092979;28;20283;-69
2021/09/21 07:22:11;;;;;;;8.98;6.45;;;13.40;99.90;;;;;;5093720;28;20230;-69
2021/09/21 07:24:39;;;;;;;8.45;7.20;;;13.50;99.90;;;;;;5093437;28;20196;-67
2021/09/21 07:27:06;;;;;;;7.38;6.68;;;13.60;99.90;;;;;;5094098;28;20236;-70
2021/09/21 07:29:34;;;;;;;8.52;6.90;;;13.60;99.90;;;;;;5094142;28;20215;-69
2021/09/21 07:32:03;;;;;;;7.07;6.22;;;13.60;99.90;;;;;;5094286;28;20251;-68
2021/09/21 07:34:30;;;;;;;8.63;6.22;;;13.70;99.90;;;;;;5094113;28;20203;-68
2021/09/21 07:36:59;;;;;;;11.68;6.40;;;13.80;99.90;;;;;;5094582;28;20284;-67
2021/09/21 07:39:28;;;;;;;7.22;6.32;;;13.90;99.90;;;;;;5094152;28;20220;-68
2021/09/21 07:41:56;;;;;;;10.20;6.82;;;14.00;99.90;;;;;;5094162;28;20200;-67
2021/09/21 07:44:24;;;;;;;6.38;5.72;;;14.10;99.90;;;;;;5094232;28;20283;-69
2021/09/21 07:46:53;;;;;;;9.23;6.57;;;14.20;99.90;;;;;;5093221;28;20242;-69
2021/09/21 07:49:21;;;;;;;6.43;5.82;;;14.30;99.90;;;;;;5093159;28;20210;-69
2021/09/21 07:51:49;;;;;;;8.77;6.63;;;14.30;99.90;;;;;;5093952;28;20207;-68
2021/09/21 07:54:17;;;;;;;6.53;5.75;;;14.30;99.90;;;;;;5094313;28;20207;-69
2021/09/21 07:56:46;;;;;;;6.90;5.97;;;14.40;99.90;;;;;;5096436;28;20704;-68
2021/09/21 07:59:14;;;;;;;7.45;6.18;;;14.50;99.90;;;;;;5095653;28;20283;-68
2021/09/21 08:01:41;;;;;;;8.85;6.78;;;14.40;99.90;;;;;;5095311;28;20405;-68
2021/09/21 08:04:09;;;;;;;7.72;5.90;;;14.40;99.90;;;;;;5095439;28;20200;-67
2021/09/21 08:06:38;;;;;;;8.77;6.50;;;14.50;99.90;;;;;;5095433;28;20200;-70
2021/09/21 08:09:06;;;;;;;7.10;6.40;;;14.60;99.90;;;;;;5095095;28;20232;-68
2021/09/21 08:11:34;;;;;;;7.07;6.28;;;14.60;99.90;;;;;;5095039;28;20821;-69
2021/09/21 08:14:05;;;;;;;7.68;6.63;;;14.60;99.90;;;;;;5095749;28;20218;-69
2021/09/21 08:16:34;;;;;;;8.07;6.53;;;14.50;99.90;;;;;;5095558;28;20794;-67
2021/09/21 08:19:02;;;;;;;8.90;6.85;;;14.50;99.90;;;;;;5095870;28;20200;-69
2021/09/21 08:21:30;;;;;;;10.40;7.20;;;14.50;99.90;;;;;;5095753;28;20192;-69
2021/09/21 08:23:58;;;;;;;11.82;7.60;;;14.40;99.90;;;;;;5095651;28;20200;-70
2021/09/21 08:26:26;;;;;;;9.52;6.82;;;14.40;99.90;;;;;;5095775;28;20204;-68
2021/09/21 08:28:54;;;;;;;6.38;5.78;;;14.30;99.90;;;;;;5095567;28;20204;-68
2021/09/21 08:31:23;;;;;;;7.65;6.28;;;14.30;99.90;;;;;;5094964;28;20220;-69
2021/09/21 08:33:51;;;;;;;8.75;6.65;;;14.30;99.90;;;;;;5095058;28;20200;-69
2021/09/21 08:36:23;;;;;;;7.93;6.20;;;14.30;99.90;;;;;;5094629;28;20223;-69
2021/09/21 08:38:51;;;;;;;7.47;6.20;;;14.40;99.90;;;;;;5094938;28;20200;-68
2021/09/21 08:41:19;;;;;;;11.05;6.43;;;14.30;99.90;;;;;;5094871;28;20527;-69
2021/09/21 08:43:46;;;;;;;7.50;5.55;;;14.30;99.90;;;;;;5094385;28;20196;-69
2021/09/21 08:46:15;;;;;;;6.68;5.32;;;14.50;99.90;;;;;;5094468;28;20196;-68
2021/09/21 08:48:44;;;;;;;7.78;5.15;;;14.50;99.90;;;;;;5094166;28;20204;-69
2021/09/21 08:51:11;;;;;;;9.75;5.60;;;14.60;99.90;;;;;;5094605;28;20212;-68
2021/09/21 08:53:39;;;;;;;6.07;5.00;;;14.70;99.90;;;;;;5094617;28;20196;-67
2021/09/21 08:56:08;;;;;;;6.25;5.15;;;14.80;99.90;;;;;;5094215;28;20670;-68
2021/09/21 08:58:36;;;;;;;7.95;5.15;;;14.80;99.90;;;;;;5094231;28;20221;-68
2021/09/21 09:01:11;;;;;;;7.75;5.30;;;14.70;99.90;;;;;;5094296;28;20607;-69
2021/09/21 09:03:40;;;;;;;6.70;5.40;;;14.70;99.90;;;;;;5094345;28;20184;-69
2021/09/21 09:06:09;;;;;;;6.20;5.43;;;14.70;99.90;;;;;;5093215;28;20207;-68
2021/09/21 09:08:38;;;;;;;6.10;5.47;;;14.80;99.90;;;;;;5093790;28;20691;-68
2021/09/21 09:11:15;;;;;;;8.65;5.35;;;14.80;99.90;;;;;;5094149;28;20540;-69
2021/09/21 09:13:44;;;;;;;5.50;4.60;;;15.20;99.90;;;;;;5094390;28;20435;-68
2021/09/21 09:16:13;;;;;;;5.72;5.05;;;15.50;99.90;;;;;;5094094;28;20200;-69
2021/09/21 09:18:43;;;;;;;7.22;5.55;;;15.60;99.90;;;;;;5094104;28;20257;-69
2021/09/21 09:21:15;;;;;;;9.45;6.10;;;15.60;99.90;;;;;;5093706;28;20206;-69
2021/09/21 09:23:47;;;;;;;6.95;4.82;;;15.40;99.90;;;;;;5094062;28;20184;-67
2021/09/21 09:26:18;;;;;;;7.90;4.90;;;15.30;99.90;;;;;;5093989;28;20200;-68
2021/09/21 09:28:47;;;;;;;6.68;5.00;;;15.30;99.90;;;;;;5093997;28;20194;-68
2021/09/21 09:31:25;;;;;;;6.13;5.40;;;15.50;99.90;;;;;;5093564;28;20223;-68
2021/09/21 09:34:04;;;;;;;6.65;4.80;;;15.70;99.90;;;;;;5093758;28;20180;-68
2021/09/21 09:36:46;;;;;;;6.15;4.95;;;16.00;99.90;;;;;;5093761;28;20184;-70
2021/09/21 09:39:14;;;;;;;5.45;4.57;;;16.30;99.90;;;;;;5093546;28;20200;-67
2021/09/21 09:41:44;;;;;;;4.88;4.22;;;16.40;99.90;;;;;;5093570;28;20253;-68
2021/09/21 09:44:14;;;;;;;7.45;5.35;;;16.40;99.90;;;;;;5093725;28;20200;-68
2021/09/21 09:46:52;;;;;;;5.63;5.13;;;16.30;99.90;;;;;;5093164;28;20632;-69
2021/09/21 09:49:26;;;;;;;5.88;4.63;;;16.30;99.90;;;;;;5093132;28;20807;-68
2021/09/21 09:52:02;;;;;;;5.00;4.28;;;16.20;99.90;;;;;;5093339;28;20646;-68
2021/09/21 09:54:31;;;;;;;6.90;3.90;;;16.00;99.90;;;;;;5093158;28;20184;-68
2021/09/21 09:56:59;;;;;;;3.92;3.33;;;15.90;99.90;;;;;;5093000;28;20239;-69
2021/09/21 09:59:28;;;;;;;4.53;3.38;;;15.90;99.90;;;;;;5093293;28;20207;-69
2021/09/21 10:01:57;;;;;;;5.47;3.80;;;15.90;99.90;;;;;;5092868;28;20202;-69
2021/09/21 10:04:25;;;;;;;4.78;3.63;;;15.80;99.90;;;;;;5092804;28;20651;-67
2021/09/21 10:06:56;;;;;;;7.88;3.72;;;15.80;99.90;;;;;;5093115;28;20230;-68
2021/09/21 10:09:24;;;;;;;5.28;3.80;;;15.90;99.90;;;;;;5093166;28;20184;-68
2021/09/21 10:11:56;;;;;;;5.05;3.95;;;16.10;99.90;;;;;;5093082;28;20220;-68
2021/09/21 10:14:25;;;;;;;5.45;3.47;;;16.30;99.90;;;;;;5093226;28;20219;-69
2021/09/21 10:16:54;;;;;;;4.85;3.33;;;16.60;99.90;;;;;;5092691;28;20206;-68
2021/09/21 10:19:25;;;;;;;8.88;3.67;;;16.90;99.90;;;;;;5092884;28;20337;-67
2021/09/21 10:21:55;;;;;;;3.75;3.13;;;17.00;99.90;;;;;;5092946;28;20182;-67
2021/09/21 10:24:39;;;;;;;4.40;3.15;;;17.20;99.90;;;;;;5093184;28;20275;-67
2021/09/21 10:27:10;;;;;;;5.22;3.17;;;17.30;99.90;;;;;;5092475;28;20279;-68
2021/09/21 10:29:38;;;;;;;2.90;2.60;;;17.10;99.90;;;;;;5092884;28;20275;-69
2021/09/21 10:32:11;;;;;;;3.75;2.60;;;16.90;99.90;;;;;;5092422;28;20224;-69
2021/09/21 10:34:42;;;;;;;4.75;3.05;;;16.60;99.90;;;;;;5092457;28;20262;-67
2021/09/21 10:37:12;;;;;;;3.33;2.60;;;16.40;99.90;;;;;;5092448;28;20185;-68
2021/09/21 10:39:40;;;;;;;3.63;2.70;;;16.20;99.90;;;;;;5092612;28;20210;-69
2021/09/21 10:42:09;;;;;;;3.72;2.78;;;16.10;99.90;;;;;;5092391;28;20196;-68
2021/09/21 10:44:49;;;;;;;5.22;2.47;;;16.00;99.90;;;;;;5092493;28;20234;-68
2021/09/21 10:47:21;;;;;;;4.40;2.55;;;16.00;99.90;;;;;;5092512;28;20202;-69
2021/09/21 10:49:54;;;;;;;3.08;2.78;;;15.90;99.90;;;;;;5092642;28;20573;-68
2021/09/21 10:52:28;;;;;;;4.95;2.95;;;15.80;99.90;;;;;;5092717;28;20219;-68
2021/09/21 10:54:58;;;;;;;3.45;2.80;;;15.90;99.90;;;;;;5092672;28;20249;-67
2021/09/21 10:57:31;;;;;;;3.67;2.90;;;15.90;99.90;;;;;;5092609;28;20181;-68
2021/09/21 11:00:02;;;;;;;5.00;3.47;;;15.90;99.90;;;;;;5092620;28;20223;-68
2021/09/21 11:02:32;;;;;;;4.40;3.53;;;15.90;99.90;;;;;;5092450;28;20192;-68
2021/09/21 11:05:00;;;;;;;5.40;3.28;;;15.90;99.90;;;;;;5092166;28;20628;-69
2021/09/21 11:07:31;;;;;;;4.22;3.83;;;16.00;99.90;;;;;;5092086;28;20293;-68
2021/09/21 11:09:59;;;;;;;4.85;4.03;;;16.00;99.90;;;;;;5092241;28;20681;-69
2021/09/21 11:12:27;;;;;;;5.60;3.45;;;16.10;99.90;;;;;;5092403;28;20227;-68
2021/09/21 11:14:57;;;;;;;4.63;4.18;;;16.20;99.90;;;;;;5092390;28;20206;-69
2021/09/21 11:17:26;;;;;;;6.07;4.57;;;16.30;99.90;;;;;;5092332;28;20218;-68
2021/09/21 11:19:56;;;;;;;7.25;4.53;;;16.50;99.90;;;;;;5092190;28;20294;-69
2021/09/21 11:22:28;;;;;;;6.03;4.10;;;16.50;99.90;;;;;;5092522;28;20283;-67
2021/09/21 11:25:03;;;;;;;4.75;3.97;;;16.70;99.90;;;;;;5092399;28;20184;-67
2021/09/21 11:27:31;;;;;;;5.70;4.30;;;16.80;99.90;;;;;;5092393;28;20311;-68
2021/09/21 11:30:07;;;;;;;4.95;3.90;;;16.90;99.90;;;;;;5094638;28;20303;-67
2021/09/21 11:32:36;;;;;;;5.13;4.22;;;17.00;99.90;;;;;;5096025;28;20213;-70
2021/09/21 11:35:07;;;;;;;5.25;4.03;;;17.00;99.90;;;;;;5096076;28;20253;-68
2021/09/21 11:37:35;;;;;;;4.50;4.10;;;16.90;99.90;;;;;;5096017;28;20648;-69
2021/09/21 11:40:06;;;;;;;4.90;4.40;;;16.90;99.90;;;;;;5095815;28;20271;-67
2021/09/21 11:42:37;;;;;;;4.90;4.15;;;16.90;99.90;;;;;;5095724;28;20268;-68
2021/09/21 11:45:08;;;;;;;5.00;4.18;;;16.80;99.90;;;;;;5095539;28;20181;-68
2021/09/21 11:47:38;;;;;;;5.68;4.18;;;16.80;99.90;;;;;;5095923;28;20188;-67
2021/09/21 11:50:14;;;;;;;6.13;4.25;;;16.90;99.90;;;;;;5095781;28;20299;-69
2021/09/21 11:52:46;;;;;;;7.63;4.38;;;17.00;99.90;;;;;;5095935;28;20211;-68
2021/09/21 11:55:18;;;;;;;5.57;4.10;;;17.30;99.90;;;;;;5095621;28;20283;-68
2021/09/21 11:57:47;;;;;;;5.72;3.85;;;17.50;99.90;;;;;;5095427;28;20281;-67
2021/09/21 12:00:27;;;;;;;6.30;4.30;;;17.90;99.90;;;;;;5095387;28;20624;-68
2021/09/21 12:02:56;;;;;;;6.70;4.57;;;18.00;99.90;;;;;;5095465;28;20213;-67
2021/09/21 12:05:25;;;;;;;5.07;4.20;;;17.90;99.90;;;;;;5095279;28;20530;-69
2021/09/21 12:07:54;;;;;;;4.57;4.13;;;17.90;99.90;;;;;;5095025;28;20322;-69
2021/09/21 12:10:25;;;;;;;6.38;4.60;;;17.80;99.90;;;;;;5095293;28;20682;-67
2021/09/21 12:13:09;;;;;;;6.43;4.40;;;17.60;99.90;;;;;;5095445;28;20208;-69
2021/09/21 12:15:39;;;;;;;6.15;3.75;;;17.50;99.90;;;;;;5093875;28;20196;-67
2021/09/21 12:18:09;;;;;;;5.28;4.65;;;17.70;99.90;;;;;;5095301;28;20288;-68
2021/09/21 12:20:38;;;;;;;5.10;4.57;;;17.50;99.90;;;;;;5095192;28;20215;-69
2021/09/21 12:23:09;;;;;;;4.88;3.97;;;17.50;99.90;;;;;;5095229;28;20610;-68
2021/09/21 12:25:42;;;;;;;4.75;4.13;;;17.70;99.90;;;;;;5094821;28;20279;-69
2021/09/21 12:28:11;;;;;;;8.15;4.53;;;18.00;99.90;;;;;;5094699;28;20231;-68
2021/09/21 12:30:40;;;;;;;4.70;4.28;;;18.10;99.90;;;;;;5094543;28;20662;-67
2021/09/21 12:33:11;;;;;;;6.43;4.32;;;18.30;99.90;;;;;;5094828;28;20222;-68
2021/09/21 12:35:43;;;;;;;5.15;4.47;;;18.40;99.90;;;;;;5094665;28;20275;-68
2021/09/21 12:38:14;;;;;;;5.38;3.70;;;18.60;99.90;;;;;;5095030;28;20180;-69
2021/09/21 12:40:52;;;;;;;3.90;3.50;;;18.50;99.90;;;;;;5094546;28;20196;-70
2021/09/21 12:43:22;;;;;;;3.78;3.38;;;18.70;99.90;;;;;;5094812;28;20180;-68
2021/09/21 12:45:52;;;;;;;3.50;3.20;;;18.70;99.90;;;;;;5094773;28;20295;-68
2021/09/21 12:48:26;;;;;;;3.40;2.70;;;18.60;99.90;;;;;;5094584;28;20199;-69
2021/09/21 12:50:55;;;;;;;4.57;2.58;;;18.60;99.90;;;;;;5094491;28;20645;-69
2021/09/21 12:53:24;;;;;;;2.97;2.67;;;18.50;99.90;;;;;;5094469;28;20226;-68
2021/09/21 12:55:58;;;;;;;3.88;2.40;;;18.40;99.90;;;;;;5094308;28;20657;-68
2021/09/21 12:58:33;;;;;;;3.17;2.30;;;18.30;99.90;;;;;;5094426;28;20279;-67
2021/09/21 13:01:02;;;;;;;5.28;2.58;;;18.20;99.90;;;;;;5094481;28;20275;-69
2021/09/21 13:03:31;;;;;;;4.75;2.20;;;18.30;99.90;;;;;;5094264;28;20261;-69
2021/09/21 13:06:00;;;;;;;2.97;2.40;;;18.20;99.90;;;;;;5094248;28;20249;-69